McGuire Air Force Base, NJ

12:50 PM EDT on September 26, 2016 (GMT -0400)
Jacobstown | | Change Station

Elev 141 ft 40.08 °N, 74.56 °W | Updated 44 seconds ago

Clear
Clear
76.8 °F
Feels Like 79 °F
N
1.6
Wind Variable Wind from SSW
Gusts 5.4 mph

Today
High -- | Low -- °F
--% Chance of Precip.
Yesterday
High -- | Low -- °F
Precip. -- in
Pressure 30.13 in
Visibility 10.0 miles
Clouds Clear
Heat Index 79 °F
Dew Point 67 °F
Humidity 71%
Rainfall 0.00 in
Snow Depth Not available.
6:50 AM 6:48 PM
Waning Crescent, 18% visible
METAR KWRI 261558Z AUTO 21008KT 10SM CLR 21/10 A3013 RMK AO2 SLP202 T02140102
Pressure 30.13 in
Visibility 10.0 miles
Clouds Clear
Heat Index 79 °F
Dew Point 67 °F
Humidity 71%
Rainfall 0.00 in
Snow Depth Not available.
6:50 AM 6:48 PM
Waning Crescent, 18% visible
METAR KWRI 261558Z AUTO 21008KT 10SM CLR 21/10 A3013 RMK AO2 SLP202 T02140102

10-Day Weather Forecast

Almanac

Astronomy

Sep. 26, 2016 Rise Set
Actual Time
Civil Twilight
Nautical Twilight
Astronomical Twilight
Moon
Length of Visible Light
Length of Day
Tomorrow will be .
, % of the Moon is Illuminated

Today's Extremes

State Highs State Lows

Community

WunderPhotos

Upload Photos

1,941,919 photos uploaded!

WunderBlog® & News

Nearby

Air Quality

  Air Quality AQ Index Pollutant
Not available.

Snow Depth

Station Depth Elevation

Earthquake Activity

City Distance Mag. Time & Date
Minimum magnitude displayed is 2.5.

Coastal Water Temperatures

Place Temperature

Stations

Nearby Weather Stations

Station Location Temp. Windchill Dew Point Humidity Wind Precip. Elev Updated Type
                   

Watches & Warnings

There are currently no watches in effect.